createdAt,value
2018-07-02T00:02:23.454Z,1.10
2018-07-02T00:04:50.958Z,1.20
2018-07-02T00:07:20.820Z,1.07
2018-07-02T00:09:48.595Z,1.10
2018-07-02T00:12:17.562Z,1.07
2018-07-02T00:14:45.872Z,1.10
2018-07-02T00:17:13.283Z,1.03
2018-07-02T00:19:40.765Z,1.10
2018-07-02T00:22:08.255Z,1.10
2018-07-02T00:24:35.694Z,1.20
2018-07-02T00:27:03.161Z,1.20
2018-07-02T00:29:30.629Z,1.00
2018-07-02T00:31:58.062Z,1.23
2018-07-02T00:34:25.466Z,1.20
2018-07-02T00:36:52.918Z,1.00
2018-07-02T00:39:20.290Z,1.00
2018-07-02T00:41:47.677Z,1.17
2018-07-02T00:44:15.144Z,1.10
2018-07-02T00:46:42.651Z,1.10
2018-07-02T00:49:10.098Z,0.90
2018-07-02T00:51:37.537Z,0.90
2018-07-02T00:54:04.954Z,1.03
2018-07-02T00:56:32.397Z,1.30
2018-07-02T00:58:59.890Z,1.20
2018-07-02T01:01:28.020Z,0.90
2018-07-02T01:03:56.618Z,0.90
2018-07-02T01:06:24.017Z,1.00
2018-07-02T01:08:51.767Z,1.10
2018-07-02T01:11:19.253Z,1.20
2018-07-02T01:13:47.004Z,1.00
2018-07-02T01:16:14.433Z,1.20
2018-07-02T01:18:43.050Z,1.30
2018-07-02T01:21:10.510Z,0.97
2018-07-02T01:23:37.930Z,1.30
2018-07-02T01:26:05.439Z,1.00
2018-07-02T01:28:32.850Z,1.10
2018-07-02T01:31:00.238Z,1.00
2018-07-02T01:33:27.676Z,1.10
2018-07-02T01:35:55.078Z,1.10
2018-07-02T01:38:22.634Z,1.20
2018-07-02T01:40:49.990Z,1.10
2018-07-02T01:43:17.378Z,1.17
2018-07-02T01:45:44.821Z,1.10
2018-07-02T01:48:12.225Z,1.13
2018-07-02T01:50:39.691Z,1.10
2018-07-02T01:53:07.154Z,1.20
2018-07-02T01:55:34.717Z,1.30
2018-07-02T01:58:02.107Z,1.10
2018-07-02T02:00:29.973Z,1.10
2018-07-02T02:02:57.446Z,1.20
2018-07-02T02:05:24.946Z,1.30
2018-07-02T02:07:52.390Z,0.90
2018-07-02T02:10:19.890Z,1.40
2018-07-02T02:12:47.303Z,1.10
2018-07-02T02:15:14.738Z,1.20
2018-07-02T02:17:42.130Z,1.30
2018-07-02T02:20:09.504Z,1.10
2018-07-02T02:22:37.114Z,1.07
2018-07-02T02:25:05.035Z,1.10
2018-07-02T02:27:32.462Z,1.90
2018-07-02T02:29:59.916Z,1.00
2018-07-02T02:32:27.266Z,1.37
2018-07-02T02:34:54.637Z,1.27
2018-07-02T02:37:22.038Z,1.50
2018-07-02T02:39:49.453Z,1.30
2018-07-02T02:42:17.048Z,1.30
2018-07-02T02:44:44.440Z,1.20
2018-07-02T02:47:11.919Z,1.20
2018-07-02T02:49:39.367Z,1.27
2018-07-02T02:52:06.810Z,1.20
2018-07-02T02:54:34.197Z,1.40
2018-07-02T02:57:01.588Z,1.67
2018-07-02T02:59:29.034Z,1.30
2018-07-02T03:01:56.394Z,1.20
2018-07-02T03:04:23.779Z,1.37
2018-07-02T03:06:51.138Z,1.50
2018-07-02T03:09:18.639Z,1.37
2018-07-02T03:11:46.077Z,1.23
2018-07-02T03:14:13.426Z,1.30
2018-07-02T03:16:40.815Z,1.23
2018-07-02T03:19:08.167Z,1.13
2018-07-02T03:21:35.576Z,1.27
2018-07-02T03:24:03.058Z,1.17
2018-07-02T03:26:30.507Z,1.20
2018-07-02T03:28:58.869Z,1.20
2018-07-02T03:31:26.252Z,1.10
2018-07-02T03:33:53.718Z,1.17
2018-07-02T03:36:21.081Z,1.20
2018-07-02T03:38:48.459Z,1.20
2018-07-02T03:41:15.805Z,1.20
2018-07-02T03:43:43.189Z,1.20
2018-07-02T03:46:10.561Z,1.70
2018-07-02T03:48:38.945Z,1.00
2018-07-02T03:51:06.319Z,1.40
2018-07-02T03:53:33.665Z,1.23
2018-07-02T03:56:01.048Z,1.40
2018-07-02T03:58:28.405Z,1.37
2018-07-02T04:00:55.785Z,1.23
2018-07-02T04:03:23.147Z,1.53
2018-07-02T04:05:50.551Z,1.87
2018-07-02T04:08:17.986Z,1.90
2018-07-02T04:10:45.352Z,1.50
2018-07-02T04:13:12.721Z,1.50
2018-07-02T04:15:40.097Z,1.33
2018-07-02T04:18:07.537Z,1.40
2018-07-02T04:20:34.913Z,1.30
2018-07-02T04:23:02.310Z,1.17
2018-07-02T04:25:29.753Z,1.23
2018-07-02T04:27:57.142Z,1.40
2018-07-02T04:30:24.499Z,1.40
2018-07-02T04:32:51.846Z,1.23
2018-07-02T04:35:19.235Z,1.50
2018-07-02T04:37:46.602Z,1.40
2018-07-02T04:40:13.962Z,1.50
2018-07-02T04:42:41.334Z,1.40
2018-07-02T04:45:08.731Z,1.80
2018-07-02T04:47:36.172Z,1.23
2018-07-02T04:50:03.578Z,1.10
2018-07-02T04:52:30.993Z,1.23
2018-07-02T04:54:58.378Z,1.13
2018-07-02T04:57:25.821Z,1.13
2018-07-02T04:59:53.215Z,1.27
2018-07-02T05:02:20.571Z,1.50
2018-07-02T05:04:47.961Z,1.20
2018-07-02T05:07:15.326Z,1.60
2018-07-02T05:09:42.677Z,1.10
2018-07-02T05:12:10.969Z,1.37
2018-07-02T05:14:38.563Z,1.40
2018-07-02T05:17:06.110Z,1.17
2018-07-02T05:19:33.513Z,1.30
2018-07-02T05:22:00.864Z,1.40
2018-07-02T05:24:28.206Z,1.20
2018-07-02T05:26:55.584Z,1.20
2018-07-02T05:29:22.953Z,1.30
2018-07-02T05:31:50.357Z,1.33
2018-07-02T05:34:17.985Z,1.90
2018-07-02T05:36:47.330Z,1.37
2018-07-02T05:39:14.694Z,2.37
2018-07-02T05:41:42.049Z,1.60
2018-07-02T05:44:09.525Z,1.30
2018-07-02T05:46:37.051Z,1.20
2018-07-02T05:49:04.360Z,1.10
2018-07-02T05:51:31.718Z,1.20
2018-07-02T05:53:59.102Z,1.00
2018-07-02T05:56:26.453Z,1.20
2018-07-02T05:58:53.814Z,1.20
2018-07-02T06:01:21.202Z,1.10
2018-07-02T06:03:48.575Z,0.93
2018-07-02T06:06:16.550Z,1.20
2018-07-02T06:08:43.890Z,0.80
2018-07-02T06:11:11.334Z,0.90
2018-07-02T06:13:38.768Z,1.00
2018-07-02T06:16:06.131Z,1.00
2018-07-02T06:18:33.489Z,0.93
2018-07-02T06:21:00.894Z,1.20
2018-07-02T06:23:28.353Z,1.20
2018-07-02T06:25:55.799Z,1.00
2018-07-02T06:28:23.159Z,1.10
2018-07-02T06:30:50.534Z,1.20
2018-07-02T06:33:17.876Z,0.90
2018-07-02T06:35:45.265Z,1.23
2018-07-02T06:38:12.630Z,1.00
2018-07-02T06:40:40.009Z,1.17
2018-07-02T06:43:07.374Z,1.13
2018-07-02T06:45:34.765Z,1.30
2018-07-02T06:48:02.222Z,0.80
2018-07-02T06:50:30.599Z,0.90
2018-07-02T06:52:57.992Z,1.00
2018-07-02T06:55:25.422Z,0.97
2018-07-02T06:57:52.781Z,0.97
2018-07-02T07:00:20.197Z,1.00
2018-07-02T07:02:47.626Z,1.00
2018-07-02T07:05:15.012Z,1.13
2018-07-02T07:07:42.384Z,0.80
2018-07-02T07:10:09.761Z,0.90
2018-07-02T07:12:37.108Z,1.23
2018-07-02T07:15:04.926Z,0.87
2018-07-02T07:17:32.342Z,0.93
2018-07-02T07:19:59.730Z,1.00
2018-07-02T07:22:27.085Z,0.97
2018-07-02T07:24:54.560Z,1.00
2018-07-02T07:27:21.888Z,0.90
2018-07-02T07:29:49.326Z,1.23
2018-07-02T07:32:16.763Z,1.00
2018-07-02T07:34:44.112Z,1.20
2018-07-02T07:37:11.513Z,1.03
2018-07-02T07:39:38.856Z,1.00
2018-07-02T07:42:06.221Z,1.00
2018-07-02T07:44:33.598Z,1.27
2018-07-02T07:47:00.968Z,0.97
2018-07-02T07:49:28.411Z,1.17
2018-07-02T07:51:55.849Z,1.30
2018-07-02T07:54:23.276Z,0.80
2018-07-02T07:56:50.644Z,0.90
2018-07-02T07:59:18.022Z,0.90
2018-07-02T08:01:45.363Z,0.83
2018-07-02T08:04:12.744Z,0.83
2018-07-02T08:06:40.222Z,0.90
2018-07-02T08:09:08.463Z,0.90
2018-07-02T08:11:35.877Z,0.80
2018-07-02T08:14:03.287Z,0.97
2018-07-02T08:16:30.706Z,0.90
2018-07-02T08:18:58.166Z,1.03
2018-07-02T08:21:25.547Z,0.90
2018-07-02T08:23:52.901Z,0.80
2018-07-02T08:26:20.351Z,0.80
2018-07-02T08:28:47.729Z,1.00
2018-07-02T08:31:15.131Z,0.90
2018-07-02T08:33:42.481Z,0.83
2018-07-02T08:36:09.873Z,0.80
2018-07-02T08:38:38.234Z,1.00
2018-07-02T08:41:05.834Z,1.00
2018-07-02T08:43:33.178Z,0.90
2018-07-02T08:46:00.599Z,0.90
2018-07-02T08:48:28.060Z,1.00
2018-07-02T08:50:55.519Z,1.00
2018-07-02T08:53:22.876Z,0.80
2018-07-02T08:55:50.227Z,0.90
2018-07-02T08:58:17.675Z,0.90
2018-07-02T09:00:45.056Z,1.13
2018-07-02T09:03:12.424Z,1.00
2018-07-02T09:05:39.815Z,0.90
2018-07-02T09:08:07.169Z,1.10
2018-07-02T09:10:34.578Z,1.20
2018-07-02T09:13:02.013Z,1.40
2018-07-02T09:15:29.364Z,0.90
2018-07-02T09:17:56.786Z,0.90
2018-07-02T09:20:24.300Z,1.97
2018-07-02T09:22:51.667Z,0.97
2018-07-02T09:25:19.074Z,1.00
2018-07-02T09:27:46.465Z,1.33
2018-07-02T09:30:13.915Z,1.30
2018-07-02T09:32:41.414Z,1.13
2018-07-02T09:35:09.837Z,1.00
2018-07-02T09:37:37.242Z,1.00
2018-07-02T09:40:04.594Z,1.00
2018-07-02T09:42:31.958Z,1.00
2018-07-02T09:44:59.339Z,0.90
2018-07-02T09:47:26.721Z,1.23
2018-07-02T09:49:54.148Z,1.00
2018-07-02T09:52:21.551Z,1.10
2018-07-02T09:54:49.046Z,1.17
2018-07-02T09:57:16.471Z,1.00
2018-07-02T09:59:43.845Z,0.80
2018-07-02T10:02:11.224Z,1.40
2018-07-02T10:04:38.587Z,1.10
2018-07-02T10:07:06.100Z,0.90
2018-07-02T10:09:33.505Z,1.10
2018-07-02T10:12:02.417Z,0.97
2018-07-02T10:14:29.883Z,1.00
2018-07-02T10:16:57.259Z,1.10
2018-07-02T10:19:24.915Z,0.93
2018-07-02T10:21:52.284Z,1.20
2018-07-02T10:24:19.673Z,1.17
2018-07-02T10:26:47.037Z,0.93
2018-07-02T10:29:14.454Z,1.20
2018-07-02T10:31:41.850Z,0.90
2018-07-02T10:34:09.222Z,1.10
2018-07-02T10:36:36.612Z,1.30
2018-07-02T10:39:05.746Z,1.10
2018-07-02T10:41:33.181Z,1.10
2018-07-02T10:44:00.535Z,1.43
2018-07-02T10:46:28.064Z,1.13
2018-07-02T10:48:55.522Z,1.13
2018-07-02T10:51:22.962Z,1.20
2018-07-02T10:53:50.338Z,0.93
2018-07-02T10:56:17.681Z,1.30
2018-07-02T10:58:45.079Z,1.17
2018-07-02T11:01:12.412Z,1.00
2018-07-02T11:03:39.796Z,1.17
2018-07-02T11:06:07.201Z,1.10
2018-07-02T11:08:34.651Z,1.20
2018-07-02T11:11:02.011Z,0.93
2018-07-02T11:13:29.504Z,1.23
2018-07-02T11:15:56.966Z,1.40
2018-07-02T11:18:24.422Z,1.23
2018-07-02T11:20:51.770Z,1.40
2018-07-02T11:23:19.136Z,1.20
2018-07-02T11:25:46.520Z,1.00
2018-07-02T11:28:13.904Z,1.20
2018-07-02T11:30:41.394Z,1.07
2018-07-02T11:33:08.827Z,1.10
2018-07-02T11:35:36.292Z,1.10
2018-07-02T11:38:03.677Z,1.00
2018-07-02T11:40:31.133Z,1.57
2018-07-02T11:42:58.549Z,1.27
2018-07-02T11:45:25.978Z,1.40
2018-07-02T11:47:53.339Z,1.33
2018-07-02T11:50:20.705Z,1.10
2018-07-02T11:52:48.088Z,1.20
2018-07-02T11:55:15.451Z,1.20
2018-07-02T11:57:42.801Z,1.50
2018-07-02T12:00:10.171Z,1.27
2018-07-02T12:02:37.849Z,1.30
2018-07-02T12:05:05.235Z,1.07
2018-07-02T12:07:32.594Z,0.90
2018-07-02T12:10:00.350Z,1.40
2018-07-02T12:12:27.731Z,1.13
2018-07-02T12:14:55.106Z,1.27
2018-07-02T12:17:22.429Z,1.10
2018-07-02T12:19:49.836Z,1.43
2018-07-02T12:22:17.201Z,1.40
2018-07-02T12:24:44.569Z,1.17
2018-07-02T12:27:11.921Z,1.20
2018-07-02T12:29:39.301Z,1.20
2018-07-02T12:32:06.690Z,1.40
2018-07-02T12:34:34.154Z,1.30
2018-07-02T12:37:01.701Z,1.47
2018-07-02T12:39:29.065Z,1.33
2018-07-02T12:41:56.458Z,2.13
2018-07-02T12:44:23.806Z,1.30
2018-07-02T12:46:51.226Z,1.10
2018-07-02T12:49:18.564Z,1.27
2018-07-02T12:51:46.022Z,1.33
2018-07-02T12:54:13.690Z,1.30
2018-07-02T12:56:40.968Z,1.20
2018-07-02T12:59:08.645Z,1.60
2018-07-02T13:01:35.982Z,1.20
2018-07-02T13:04:03.374Z,1.27
2018-07-02T13:06:30.725Z,1.27
2018-07-02T13:08:58.108Z,1.50
2018-07-02T13:11:25.483Z,1.30
2018-07-02T13:13:53.038Z,1.40
2018-07-02T13:16:20.409Z,1.30
2018-07-02T13:18:47.793Z,1.03
2018-07-02T13:21:15.167Z,1.50
2018-07-02T13:23:42.611Z,1.23
2018-07-02T13:26:10.020Z,1.60
2018-07-02T13:28:37.428Z,1.13
2018-07-02T13:31:04.851Z,1.00
2018-07-02T13:33:32.270Z,1.23
2018-07-02T13:35:59.857Z,1.23
2018-07-02T13:38:27.241Z,1.30
2018-07-02T13:40:54.813Z,1.33
2018-07-02T13:43:22.163Z,1.20
2018-07-02T13:45:49.521Z,1.20
2018-07-02T13:48:16.941Z,1.20
2018-07-02T13:50:44.345Z,1.50
2018-07-02T13:53:11.756Z,1.10
2018-07-02T13:55:39.094Z,1.10
2018-07-02T13:58:06.472Z,1.03
2018-07-02T14:00:33.837Z,1.00
2018-07-02T14:03:01.212Z,1.00
2018-07-02T14:05:28.665Z,1.10
2018-07-02T14:07:56.050Z,1.13
2018-07-02T14:10:23.437Z,1.20
2018-07-02T14:12:50.884Z,1.00
2018-07-02T14:15:18.242Z,1.30
2018-07-02T14:17:45.683Z,1.30
2018-07-02T14:20:13.081Z,1.00
2018-07-02T14:22:40.460Z,0.83
2018-07-02T14:25:07.827Z,1.00
2018-07-02T14:27:35.198Z,1.20
2018-07-02T14:30:02.614Z,0.97
2018-07-02T14:32:30.019Z,1.10
2018-07-02T14:34:57.425Z,0.97
2018-07-02T14:37:24.873Z,1.30
2018-07-02T14:39:52.226Z,1.00
2018-07-02T14:42:19.611Z,1.03
2018-07-02T14:44:47.016Z,0.90
2018-07-02T14:47:14.327Z,0.90
2018-07-02T14:49:41.752Z,0.90
2018-07-02T14:52:09.174Z,1.20
2018-07-02T14:54:36.610Z,1.10
2018-07-02T14:57:04.013Z,1.00
2018-07-02T14:59:31.389Z,1.00
2018-07-02T15:01:58.773Z,0.80
2018-07-02T15:04:26.206Z,1.10
2018-07-02T15:06:53.594Z,1.00
2018-07-02T15:09:21.060Z,1.00
2018-07-02T15:11:48.409Z,0.80
2018-07-02T15:14:15.773Z,0.83
2018-07-02T15:16:43.177Z,1.20
2018-07-02T15:19:10.637Z,0.80
2018-07-02T15:21:37.981Z,0.90
2018-07-02T15:24:05.375Z,0.90
2018-07-02T15:26:32.723Z,0.90
2018-07-02T15:29:00.070Z,1.00
2018-07-02T15:31:27.457Z,1.10
2018-07-02T15:33:54.841Z,0.80
2018-07-02T15:36:22.191Z,1.07
2018-07-02T15:38:49.560Z,0.90
2018-07-02T15:41:16.927Z,1.10
2018-07-02T15:43:44.353Z,0.93
2018-07-02T15:46:11.794Z,1.10
2018-07-02T15:48:39.229Z,1.00
2018-07-02T15:51:06.599Z,0.90
2018-07-02T15:53:33.958Z,1.00
2018-07-02T15:56:01.337Z,1.10
2018-07-02T15:58:28.750Z,0.80
2018-07-02T16:00:56.096Z,0.90
2018-07-02T16:03:23.507Z,1.43
2018-07-02T16:05:50.926Z,1.47
2018-07-02T16:08:18.350Z,1.00
2018-07-02T16:10:45.734Z,1.33
2018-07-02T16:13:13.112Z,0.70
2018-07-02T16:15:40.478Z,1.00
2018-07-02T16:18:07.891Z,0.90
2018-07-02T16:20:35.305Z,0.90
2018-07-02T16:23:02.706Z,1.20
2018-07-02T16:25:30.041Z,1.10
2018-07-02T16:27:57.434Z,1.13
2018-07-02T16:30:24.897Z,1.10
2018-07-02T16:32:52.247Z,0.93
2018-07-02T16:35:19.615Z,1.00
2018-07-02T16:37:46.989Z,0.90
2018-07-02T16:40:14.394Z,0.90
2018-07-02T16:42:41.810Z,1.20
2018-07-02T16:45:09.205Z,1.10
2018-07-02T16:47:36.580Z,0.80
2018-07-02T16:50:03.954Z,1.20
2018-07-02T16:52:31.370Z,1.00
2018-07-02T16:54:58.746Z,0.83
2018-07-02T16:57:26.154Z,0.80
2018-07-02T16:59:53.606Z,1.10
2018-07-02T17:02:20.976Z,0.93
2018-07-02T17:04:48.373Z,1.00
2018-07-02T17:07:15.843Z,1.10
2018-07-02T17:09:43.285Z,1.10
2018-07-02T17:12:10.650Z,1.00
2018-07-02T17:14:37.987Z,0.90
2018-07-02T17:17:05.408Z,0.90
2018-07-02T17:19:32.872Z,0.90
2018-07-02T17:22:00.225Z,0.90
2018-07-02T17:24:27.581Z,1.00
2018-07-02T17:26:54.953Z,1.03
2018-07-02T17:29:22.337Z,1.20
2018-07-02T17:31:49.682Z,1.03
2018-07-02T17:34:17.046Z,1.27
2018-07-02T17:36:44.430Z,1.50
2018-07-02T17:39:11.887Z,1.10
2018-07-02T17:41:39.476Z,1.13
2018-07-02T17:44:06.867Z,1.10
2018-07-02T17:46:34.394Z,1.20
2018-07-02T17:49:01.789Z,1.10
2018-07-02T17:51:29.142Z,1.10
2018-07-02T17:53:56.530Z,0.97
2018-07-02T17:56:24.015Z,1.10
2018-07-02T17:58:51.465Z,1.17
2018-07-02T18:01:18.840Z,1.10
2018-07-02T18:03:46.485Z,1.17
2018-07-02T18:06:13.856Z,1.07
2018-07-02T18:08:41.239Z,1.03
2018-07-02T18:11:08.581Z,1.10
2018-07-02T18:13:35.986Z,1.10
2018-07-02T18:16:03.445Z,1.10
2018-07-02T18:18:30.818Z,0.90
2018-07-02T18:20:58.176Z,1.00
2018-07-02T18:23:25.563Z,1.03
2018-07-02T18:25:53.723Z,1.20
2018-07-02T18:28:21.121Z,1.13
2018-07-02T18:30:48.634Z,1.10
2018-07-02T18:33:16.054Z,1.10
2018-07-02T18:35:43.543Z,1.50
2018-07-02T18:38:10.979Z,1.37
2018-07-02T18:40:38.441Z,1.50
2018-07-02T18:43:05.883Z,1.20
2018-07-02T18:45:33.317Z,1.27
2018-07-02T18:48:00.749Z,0.90
2018-07-02T18:50:28.089Z,1.20
2018-07-02T18:52:55.553Z,1.40
2018-07-02T18:55:22.990Z,1.10
2018-07-02T18:57:50.447Z,1.10
2018-07-02T19:00:17.926Z,1.00
2018-07-02T19:02:45.363Z,1.00
2018-07-02T19:05:12.785Z,1.30
2018-07-02T19:07:40.237Z,1.20
2018-07-02T19:10:07.829Z,1.20
2018-07-02T19:12:35.218Z,1.23
2018-07-02T19:15:02.677Z,1.30
2018-07-02T19:17:30.086Z,1.70
2018-07-02T19:19:57.474Z,1.20
2018-07-02T19:22:24.946Z,1.30
2018-07-02T19:24:52.409Z,1.70
2018-07-02T19:27:19.838Z,1.40
2018-07-02T19:29:47.304Z,1.60
2018-07-02T19:32:14.712Z,0.97
2018-07-02T19:34:42.147Z,1.10
2018-07-02T19:37:09.534Z,1.40
2018-07-02T19:39:36.928Z,1.60
2018-07-02T19:42:04.382Z,1.67
2018-07-02T19:44:31.725Z,1.40
2018-07-02T19:46:59.124Z,1.73
2018-07-02T19:49:26.473Z,1.30
2018-07-02T19:51:54.025Z,1.20
2018-07-02T19:54:21.470Z,1.50
2018-07-02T19:56:49.059Z,1.30
2018-07-02T19:59:16.360Z,1.17
2018-07-02T20:01:43.741Z,1.20
2018-07-02T20:04:11.235Z,1.30
2018-07-02T20:06:38.678Z,1.20
2018-07-02T20:09:06.873Z,1.10
2018-07-02T20:11:34.414Z,1.20
2018-07-02T20:14:01.824Z,1.20
2018-07-02T20:16:29.279Z,1.23
2018-07-02T20:18:56.807Z,1.50
2018-07-02T20:21:24.235Z,1.20
2018-07-02T20:23:51.687Z,1.33
2018-07-02T20:26:19.073Z,1.07
2018-07-02T20:28:46.525Z,1.30
2018-07-02T20:31:13.981Z,1.30
2018-07-02T20:33:41.350Z,1.20
2018-07-02T20:36:08.768Z,1.20
2018-07-02T20:38:36.829Z,1.63
2018-07-02T20:41:04.306Z,1.63
2018-07-02T20:43:31.763Z,1.80
2018-07-02T20:45:59.283Z,1.57
2018-07-02T20:48:26.905Z,2.40
2018-07-02T20:50:54.805Z,1.80
2018-07-02T20:53:22.331Z,1.37
2018-07-02T20:55:49.692Z,1.27
2018-07-02T20:58:17.070Z,1.43
2018-07-02T21:00:44.426Z,1.53
2018-07-02T21:03:11.822Z,1.37
2018-07-02T21:05:39.265Z,1.67
2018-07-02T21:08:06.678Z,1.20
2018-07-02T21:10:34.195Z,2.70
2018-07-02T21:13:01.581Z,1.57
2018-07-02T21:15:28.926Z,1.83
2018-07-02T21:17:56.394Z,1.80
2018-07-02T21:20:23.791Z,1.70
2018-07-02T21:22:51.165Z,1.70
2018-07-02T21:25:18.625Z,1.87
2018-07-02T21:27:46.075Z,1.70
2018-07-02T21:30:13.437Z,1.70
2018-07-02T21:32:40.825Z,1.57
2018-07-02T21:35:09.100Z,1.43
2018-07-02T21:37:36.513Z,1.50
2018-07-02T21:40:04.081Z,1.57
2018-07-02T21:42:31.555Z,1.57
2018-07-02T21:44:59.045Z,1.50
2018-07-02T21:47:26.520Z,1.70
2018-07-02T21:49:54.448Z,1.60
2018-07-02T21:52:22.111Z,1.60
2018-07-02T21:54:49.538Z,1.43
2018-07-02T21:57:16.985Z,1.37
2018-07-02T21:59:44.500Z,1.40
2018-07-02T22:02:11.970Z,1.40
2018-07-02T22:04:39.477Z,1.37
2018-07-02T22:07:06.848Z,1.70
2018-07-02T22:09:34.177Z,1.90
2018-07-02T22:12:01.645Z,1.90
2018-07-02T22:14:29.018Z,1.70
2018-07-02T22:16:56.413Z,1.73
2018-07-02T22:19:23.769Z,2.03
2018-07-02T22:21:51.112Z,2.10
2018-07-02T22:24:18.519Z,2.07
2018-07-02T22:26:45.862Z,1.70
2018-07-02T22:29:13.244Z,1.80
2018-07-02T22:31:41.844Z,1.50
2018-07-02T22:34:09.184Z,2.00
2018-07-02T22:36:36.554Z,1.70
2018-07-02T22:39:05.956Z,1.60
2018-07-02T22:41:33.353Z,2.27
2018-07-02T22:44:00.743Z,1.60
2018-07-02T22:46:28.099Z,1.77
2018-07-02T22:48:55.459Z,1.93
2018-07-02T22:51:22.831Z,2.07
2018-07-02T22:53:50.218Z,2.00
2018-07-02T22:56:17.644Z,1.57
2018-07-02T22:58:45.051Z,1.93
2018-07-02T23:01:12.478Z,2.07
2018-07-02T23:03:40.078Z,1.63
2018-07-02T23:07:10.731Z,1.63
2018-07-02T23:09:38.337Z,1.70
2018-07-02T23:12:06.011Z,1.70
2018-07-02T23:14:33.708Z,1.90
2018-07-02T23:17:01.554Z,2.03
2018-07-02T23:19:30.417Z,2.10
2018-07-02T23:21:58.015Z,1.63
2018-07-02T23:24:25.546Z,2.37
2018-07-02T23:26:53.264Z,1.80
2018-07-02T23:29:20.957Z,2.10
2018-07-02T23:31:48.614Z,2.10
2018-07-02T23:34:16.133Z,2.13
2018-07-02T23:36:43.846Z,2.37
2018-07-02T23:39:13.003Z,1.80
2018-07-02T23:41:41.758Z,1.93
2018-07-02T23:44:09.399Z,1.70
2018-07-02T23:46:37.044Z,2.20
2018-07-02T23:49:05.026Z,2.03
2018-07-02T23:51:32.634Z,2.10
2018-07-02T23:54:00.674Z,2.30
2018-07-02T23:56:28.290Z,1.83
2018-07-02T23:58:55.950Z,2.60
